Time,TemperatureF,DewpointF,PressureIn,WindDirection,WindDirectionDegrees,WindSpeedMPH,WindSpeedGustMPH,Humidity,HourlyPrecipIn,Conditions,Clouds,dailyrainin,SoftwareType,DateUTC
2013-03-18 00:03:00,29.0,21.0,30.23,North,0,0.0,0.0,72,0.00,,,0.08,,2013-03-18 04:03:00,
2013-03-18 00:13:00,29.0,21.0,30.23,North,0,0.0,0.0,72,0.00,,,0.08,,2013-03-18 04:13:00,
2013-03-18 00:23:00,29.0,21.0,30.23,North,0,0.0,0.0,73,0.00,,,0.08,,2013-03-18 04:23:00,
2013-03-18 00:33:00,28.0,20.0,30.24,North,0,0.0,0.0,73,0.00,,,0.08,,2013-03-18 04:33:00,
2013-03-18 00:42:00,28.0,20.0,30.24,North,0,0.0,0.0,73,0.00,,,0.08,,2013-03-18 04:42:00,
2013-03-18 00:53:00,28.0,21.0,30.24,North,0,0.0,0.0,74,0.00,,,0.08,,2013-03-18 04:53:00,
2013-03-18 01:03:00,28.0,21.0,30.23,North,0,0.0,0.0,74,0.00,,,0.08,,2013-03-18 05:03:00,
2013-03-18 01:12:00,28.0,21.0,30.23,North,0,0.0,0.0,74,0.00,,,0.08,,2013-03-18 05:12:00,
2013-03-18 01:22:00,28.0,21.0,30.24,North,0,0.0,0.0,74,0.00,,,0.08,,2013-03-18 05:22:00,
2013-03-18 01:32:00,28.0,21.0,30.24,North,0,0.0,0.0,74,0.00,,,0.08,,2013-03-18 05:32:00,
2013-03-18 01:43:00,28.0,21.0,30.24,North,0,0.0,0.0,74,0.00,,,0.08,,2013-03-18 05:43:00,
2013-03-18 01:52:00,28.0,21.0,30.24,North,0,0.0,0.0,75,0.00,,,0.08,,2013-03-18 05:52:00,
2013-03-18 02:02:00,28.0,21.0,30.25,North,0,0.0,0.0,75,0.00,,,0.08,,2013-03-18 06:02:00,
2013-03-18 02:12:00,28.0,21.0,30.25,North,0,0.0,0.0,75,0.00,,,0.08,,2013-03-18 06:12:00,
2013-03-18 02:22:00,28.0,21.0,30.26,North,0,0.0,0.0,74,0.00,,,0.08,,2013-03-18 06:22:00,
2013-03-18 02:32:00,27.0,20.0,30.26,North,0,0.0,0.0,74,0.00,,,0.08,,2013-03-18 06:32:00,
2013-03-18 02:42:00,27.0,20.0,30.26,North,0,0.0,0.0,74,0.00,,,0.08,,2013-03-18 06:42:00,
2013-03-18 02:52:00,27.0,20.0,30.26,North,0,0.0,0.0,75,0.00,,,0.08,,2013-03-18 06:52:00,
2013-03-18 03:02:00,28.0,21.0,30.27,North,0,0.0,0.0,75,0.00,,,0.08,,2013-03-18 07:02:00,
2013-03-18 03:12:00,28.0,21.0,30.27,North,0,0.0,0.0,75,0.00,,,0.08,,2013-03-18 07:12:00,
2013-03-18 03:22:00,28.0,21.0,30.27,North,0,0.0,0.0,76,0.00,,,0.08,,2013-03-18 07:22:00,
2013-03-18 03:33:00,28.0,21.0,30.26,North,0,0.0,0.0,76,0.00,,,0.08,,2013-03-18 07:33:00,
2013-03-18 03:42:00,28.0,21.0,30.26,North,0,0.0,0.0,76,0.00,,,0.08,,2013-03-18 07:42:00,
2013-03-18 03:53:00,28.0,21.0,30.27,North,0,0.0,0.0,75,0.00,,,0.08,,2013-03-18 07:53:00,
2013-03-18 04:02:00,28.0,20.0,30.27,North,0,0.0,4.0,73,0.00,,,0.08,,2013-03-18 08:02:00,
2013-03-18 04:12:00,28.0,20.0,30.27,North,0,0.0,4.0,73,0.00,,,0.08,,2013-03-18 08:12:00,
2013-03-18 04:22:00,28.0,20.0,30.27,North,0,0.0,1.0,72,0.00,,,0.08,,2013-03-18 08:22:00,
2013-03-18 04:32:00,28.0,20.0,30.27,North,0,0.0,6.0,71,0.00,,,0.08,,2013-03-18 08:32:00,
2013-03-18 04:43:00,28.0,20.0,30.27,North,0,0.0,6.0,71,0.00,,,0.08,,2013-03-18 08:43:00,
2013-03-18 04:53:00,28.0,19.0,30.27,North,0,0.0,6.0,69,0.00,,,0.08,,2013-03-18 08:53:00,
2013-03-18 05:02:00,28.0,19.0,30.27,North,0,0.0,3.0,68,0.00,,,0.08,,2013-03-18 09:02:00,
2013-03-18 05:12:00,28.0,19.0,30.27,North,0,0.0,3.0,68,0.00,,,0.08,,2013-03-18 09:12:00,
2013-03-18 05:22:00,28.0,18.0,30.27,North,0,0.0,4.0,67,0.00,,,0.08,,2013-03-18 09:22:00,
2013-03-18 05:33:00,28.0,18.0,30.27,North,0,0.0,4.0,66,0.00,,,0.08,,2013-03-18 09:33:00,
2013-03-18 05:43:00,28.0,18.0,30.27,North,0,0.0,4.0,66,0.00,,,0.08,,2013-03-18 09:43:00,
2013-03-18 05:53:00,28.0,18.0,30.27,North,0,0.0,3.0,66,0.00,,,0.08,,2013-03-18 09:53:00,
2013-03-18 06:03:00,28.0,18.0,30.28,ESE,118,1.0,5.0,65,0.00,,,0.08,,2013-03-18 10:03:00,
2013-03-18 06:13:00,28.0,18.0,30.28,ESE,118,1.0,5.0,65,0.00,,,0.08,,2013-03-18 10:13:00,
2013-03-18 06:23:00,28.0,18.0,30.28,North,0,0.0,5.0,65,0.00,,,0.08,,2013-03-18 10:23:00,
2013-03-18 06:33:00,28.0,18.0,30.28,North,0,0.0,6.0,65,0.00,,,0.08,,2013-03-18 10:33:00,
2013-03-18 06:42:00,28.0,18.0,30.28,North,0,0.0,6.0,65,0.00,,,0.08,,2013-03-18 10:42:00,
2013-03-18 06:53:00,28.0,18.0,30.29,North,0,0.0,3.0,65,0.00,,,0.08,,2013-03-18 10:53:00,
2013-03-18 07:03:00,28.0,18.0,30.30,North,0,0.0,3.0,65,0.00,,,0.08,,2013-03-18 11:03:00,
2013-03-18 07:13:00,28.0,18.0,30.30,North,0,0.0,3.0,65,0.00,,,0.08,,2013-03-18 11:13:00,
2013-03-18 07:22:00,28.0,18.0,30.30,North,0,0.0,3.0,66,0.00,,,0.08,,2013-03-18 11:22:00,
2013-03-18 07:32:00,28.0,18.0,30.30,North,0,0.0,3.0,66,0.00,,,0.08,,2013-03-18 11:32:00,
2013-03-18 07:42:00,28.0,18.0,30.30,North,0,0.0,3.0,66,0.00,,,0.08,,2013-03-18 11:42:00,
2013-03-18 07:53:00,28.0,18.0,30.30,North,0,0.0,3.0,66,0.00,,,0.08,,2013-03-18 11:53:00,
2013-03-18 08:12:00,28.0,18.0,30.29,North,0,0.0,1.0,66,0.00,,,0.08,,2013-03-18 12:12:00,
2013-03-18 08:22:00,28.0,18.0,30.28,North,0,0.0,3.0,65,0.00,,,0.08,,2013-03-18 12:22:00,
2013-03-18 08:32:00,28.0,17.0,30.29,North,0,0.0,5.0,64,0.00,,,0.08,,2013-03-18 12:32:00,
2013-03-18 08:43:00,28.0,17.0,30.29,North,0,0.0,5.0,64,0.00,,,0.08,,2013-03-18 12:43:00,
2013-03-18 08:52:00,29.0,18.0,30.29,North,0,0.0,2.0,63,0.00,,,0.08,,2013-03-18 12:52:00,
2013-03-18 09:02:00,29.0,18.0,30.29,North,0,0.0,6.0,62,0.00,,,0.08,,2013-03-18 13:02:00,
2013-03-18 09:12:00,29.0,18.0,30.29,North,0,0.0,6.0,62,0.00,,,0.08,,2013-03-18 13:12:00,
2013-03-18 09:22:00,29.0,17.0,30.29,North,0,0.0,4.0,61,0.00,,,0.08,,2013-03-18 13:22:00,
2013-03-18 09:33:00,30.0,18.0,30.29,North,0,0.0,5.0,61,0.00,,,0.08,,2013-03-18 13:33:00,
2013-03-18 09:42:00,30.0,18.0,30.29,North,0,0.0,5.0,61,0.00,,,0.08,,2013-03-18 13:42:00,
2013-03-18 09:52:00,30.0,17.0,30.29,North,0,0.0,5.0,59,0.00,,,0.08,,2013-03-18 13:52:00,
2013-03-18 10:02:00,31.0,18.0,30.28,North,0,0.0,5.0,58,0.00,,,0.08,,2013-03-18 14:02:00,
2013-03-18 10:12:00,31.0,18.0,30.28,North,0,0.0,5.0,58,0.00,,,0.08,,2013-03-18 14:12:00,
2013-03-18 10:22:00,31.0,18.0,30.27,South,188,2.0,6.0,57,0.00,,,0.08,,2013-03-18 14:22:00,
2013-03-18 10:32:00,32.0,19.0,30.27,SW,229,1.0,6.0,57,0.00,,,0.08,,2013-03-18 14:32:00,
2013-03-18 10:42:00,32.0,19.0,30.27,SW,229,1.0,6.0,57,0.00,,,0.08,,2013-03-18 14:42:00,
2013-03-18 10:52:00,32.0,20.0,30.26,North,0,0.0,5.0,60,0.00,,,0.08,,2013-03-18 14:52:00,
2013-03-18 11:02:00,32.0,20.0,30.25,SW,217,1.0,10.0,60,0.00,,,0.08,,2013-03-18 15:02:00,
2013-03-18 11:12:00,32.0,20.0,30.25,SW,217,1.0,10.0,60,0.00,,,0.08,,2013-03-18 15:12:00,
2013-03-18 11:22:00,33.0,22.0,30.24,North,0,0.0,4.0,63,0.00,,,0.08,,2013-03-18 15:22:00,
2013-03-18 11:33:00,33.0,22.0,30.25,North,0,0.0,4.0,64,0.00,,,0.08,,2013-03-18 15:33:00,
2013-03-18 11:43:00,33.0,22.0,30.25,North,0,0.0,4.0,64,0.00,,,0.08,,2013-03-18 15:43:00,
2013-03-18 11:52:00,33.0,22.0,30.25,North,0,0.0,4.0,64,0.00,,,0.08,,2013-03-18 15:52:00,
2013-03-18 12:03:00,34.0,23.0,30.23,SE,132,1.0,7.0,65,0.00,,,0.08,,2013-03-18 16:03:00,
2013-03-18 12:12:00,34.0,23.0,30.23,SE,132,1.0,7.0,65,0.00,,,0.08,,2013-03-18 16:12:00,
2013-03-18 12:23:00,34.0,23.0,30.22,North,0,0.0,5.0,65,0.00,,,0.07,,2013-03-18 16:23:00,
2013-03-18 12:33:00,34.0,23.0,30.21,SSE,154,1.0,6.0,65,0.00,,,0.07,,2013-03-18 16:33:00,
2013-03-18 12:42:00,34.0,23.0,30.21,SSE,154,1.0,6.0,65,0.00,,,0.07,,2013-03-18 16:42:00,
2013-03-18 12:53:00,35.0,25.0,30.20,SSE,160,1.0,7.0,66,0.00,,,0.06,,2013-03-18 16:53:00,
2013-03-18 13:02:00,35.0,25.0,30.19,SSE,148,1.0,7.0,67,0.00,,,0.06,,2013-03-18 17:02:00,
2013-03-18 13:12:00,35.0,25.0,30.19,SSE,148,1.0,7.0,67,0.00,,,0.06,,2013-03-18 17:12:00,
2013-03-18 13:22:00,35.0,25.0,30.19,North,0,0.0,4.0,67,0.00,,,0.05,,2013-03-18 17:22:00,
2013-03-18 13:32:00,35.0,25.0,30.18,North,0,0.0,7.0,67,0.00,,,0.05,,2013-03-18 17:32:00,
2013-03-18 13:42:00,35.0,25.0,30.18,North,0,0.0,7.0,67,0.00,,,0.05,,2013-03-18 17:42:00,
2013-03-18 13:52:00,35.0,26.0,30.16,North,0,0.0,6.0,68,0.00,,,0.04,,2013-03-18 17:52:00,
2013-03-18 14:02:00,36.0,27.0,30.16,North,0,0.0,3.0,69,0.00,,,0.04,,2013-03-18 18:02:00,
2013-03-18 14:12:00,36.0,27.0,30.16,North,0,0.0,3.0,69,0.00,,,0.04,,2013-03-18 18:12:00,
2013-03-18 14:22:00,36.0,26.0,30.16,North,0,0.0,3.0,68,0.00,,,0.03,,2013-03-18 18:22:00,
2013-03-18 14:32:00,36.0,27.0,30.15,North,0,0.0,4.0,69,0.00,,,0.02,,2013-03-18 18:32:00,
2013-03-18 14:42:00,36.0,27.0,30.15,North,0,0.0,4.0,69,0.00,,,0.02,,2013-03-18 18:42:00,
2013-03-18 14:52:00,36.0,27.0,30.15,North,0,0.0,4.0,70,0.00,,,0.02,,2013-03-18 18:52:00,
2013-03-18 15:02:00,36.0,28.0,30.14,North,0,0.0,9.0,72,0.00,,,0.02,,2013-03-18 19:02:00,
2013-03-18 15:12:00,36.0,28.0,30.14,North,0,0.0,9.0,72,0.00,,,0.02,,2013-03-18 19:12:00,
2013-03-18 15:22:00,36.0,30.0,30.14,North,0,0.0,4.0,78,0.00,,,0.01,,2013-03-18 19:22:00,
2013-03-18 15:33:00,35.0,30.0,30.11,North,0,0.0,5.0,82,0.00,,,0.01,,2013-03-18 19:33:00,
2013-03-18 15:42:00,35.0,30.0,30.11,North,0,0.0,5.0,82,0.00,,,0.01,,2013-03-18 19:42:00,
2013-03-18 15:52:00,35.0,31.0,30.09,North,0,0.0,6.0,85,0.00,,,0.01,,2013-03-18 19:52:00,
2013-03-18 16:02:00,35.0,32.0,30.08,North,0,0.0,5.0,87,0.00,,,0.01,,2013-03-18 20:02:00,
2013-03-18 16:12:00,35.0,32.0,30.08,North,0,0.0,5.0,87,0.00,,,0.01,,2013-03-18 20:12:00,
2013-03-18 16:23:00,35.0,32.0,30.06,North,0,0.0,6.0,88,0.00,,,0.00,,2013-03-18 20:23:00,
2013-03-18 16:33:00,35.0,32.0,30.06,North,0,0.0,9.0,89,0.00,,,0.00,,2013-03-18 20:33:00,
2013-03-18 16:42:00,35.0,32.0,30.06,North,0,0.0,9.0,89,0.00,,,0.00,,2013-03-18 20:42:00,
2013-03-18 16:52:00,34.0,31.0,30.05,North,0,0.0,5.0,89,0.00,,,0.00,,2013-03-18 20:52:00,
2013-03-18 17:02:00,34.0,31.0,30.06,North,0,0.0,5.0,89,0.00,,,0.00,,2013-03-18 21:02:00,
2013-03-18 17:12:00,34.0,31.0,30.06,North,0,0.0,5.0,89,0.00,,,0.00,,2013-03-18 21:12:00,
2013-03-18 17:22:00,34.0,31.0,30.06,North,0,0.0,5.0,90,0.00,,,0.00,,2013-03-18 21:22:00,
2013-03-18 17:32:00,33.0,31.0,30.02,South,188,1.0,6.0,91,0.00,,,0.00,,2013-03-18 21:32:00,
2013-03-18 17:42:00,33.0,31.0,30.02,South,188,1.0,6.0,91,0.00,,,0.00,,2013-03-18 21:42:00,
2013-03-18 17:53:00,33.0,31.0,30.01,North,0,0.0,3.0,92,0.00,,,0.00,,2013-03-18 21:53:00,
2013-03-18 18:03:00,33.0,31.0,30.02,North,0,0.0,5.0,92,0.00,,,0.00,,2013-03-18 22:03:00,
2013-03-18 18:13:00,33.0,31.0,30.02,North,0,0.0,5.0,92,0.00,,,0.00,,2013-03-18 22:13:00,
2013-03-18 18:23:00,33.0,31.0,30.01,North,0,0.0,7.0,92,0.00,,,0.00,,2013-03-18 22:23:00,
2013-03-18 18:33:00,33.0,31.0,30.01,North,0,0.0,4.0,93,0.00,,,0.00,,2013-03-18 22:33:00,
2013-03-18 18:42:00,33.0,31.0,30.01,North,0,0.0,4.0,93,0.00,,,0.00,,2013-03-18 22:42:00,
2013-03-18 18:53:00,33.0,31.0,30.02,North,0,0.0,4.0,93,0.00,,,0.00,,2013-03-18 22:53:00,
2013-03-18 19:03:00,32.0,30.0,30.01,North,0,0.0,4.0,93,0.00,,,0.00,,2013-03-18 23:03:00,
2013-03-18 19:12:00,32.0,30.0,30.01,North,0,0.0,4.0,93,0.00,,,0.00,,2013-03-18 23:12:00,
2013-03-18 19:23:00,32.0,30.0,30.01,North,0,0.0,4.0,94,0.00,,,0.00,,2013-03-18 23:23:00,
2013-03-18 19:32:00,32.0,30.0,30.00,North,0,0.0,4.0,94,0.00,,,0.00,,2013-03-18 23:32:00,
2013-03-18 19:42:00,32.0,30.0,30.00,North,0,0.0,4.0,94,0.00,,,0.00,,2013-03-18 23:42:00,
2013-03-18 19:53:00,32.0,30.0,29.99,North,0,0.0,5.0,94,0.01,,,0.01,,2013-03-18 23:53:00,
2013-03-18 20:02:00,32.0,30.0,29.98,North,0,0.0,5.0,94,0.02,,,0.02,,2013-03-19 00:02:00,
2013-03-18 20:12:00,32.0,30.0,29.98,North,0,0.0,5.0,94,0.02,,,0.02,,2013-03-19 00:12:00,
2013-03-18 20:23:00,32.0,30.0,29.96,North,0,0.0,5.0,94,0.03,,,0.03,,2013-03-19 00:23:00,
2013-03-18 20:32:00,32.0,31.0,29.96,North,0,0.0,5.0,95,0.05,,,0.05,,2013-03-19 00:32:00,
2013-03-18 20:42:00,32.0,31.0,29.96,North,0,0.0,5.0,95,0.05,,,0.05,,2013-03-19 00:42:00,
2013-03-18 20:52:00,32.0,31.0,29.95,SSE,150,1.0,5.0,95,0.07,,,0.08,,2013-03-19 00:52:00,
2013-03-18 21:02:00,32.0,31.0,29.95,SE,142,1.0,6.0,95,0.09,,,0.11,,2013-03-19 01:02:00,
2013-03-18 21:12:00,32.0,31.0,29.95,SE,142,1.0,6.0,95,0.09,,,0.11,,2013-03-19 01:12:00,
2013-03-18 21:22:00,32.0,31.0,29.95,North,0,0.0,4.0,95,0.11,,,0.14,,2013-03-19 01:22:00,
2013-03-18 21:32:00,32.0,31.0,29.95,North,0,0.0,7.0,95,0.11,,,0.16,,2013-03-19 01:32:00,
2013-03-18 21:42:00,32.0,31.0,29.95,North,0,0.0,7.0,95,0.11,,,0.16,,2013-03-19 01:42:00,
2013-03-18 21:52:00,32.0,31.0,29.95,North,0,0.0,5.0,95,0.10,,,0.18,,2013-03-19 01:52:00,
2013-03-18 22:02:00,32.0,31.0,29.95,North,0,0.0,4.0,95,0.09,,,0.20,,2013-03-19 02:02:00,
2013-03-18 22:12:00,32.0,31.0,29.95,North,0,0.0,4.0,95,0.09,,,0.20,,2013-03-19 02:12:00,
2013-03-18 22:22:00,32.0,31.0,29.93,North,0,0.0,8.0,96,0.08,,,0.22,,2013-03-19 02:22:00,
2013-03-18 22:33:00,32.0,31.0,29.92,ESE,107,1.0,7.0,95,0.06,,,0.22,,2013-03-19 02:33:00,
2013-03-18 22:42:00,32.0,31.0,29.92,ESE,107,1.0,7.0,95,0.06,,,0.22,,2013-03-19 02:42:00,
2013-03-18 22:53:00,32.0,31.0,29.91,East,95,1.0,7.0,96,0.05,,,0.23,,2013-03-19 02:53:00,
2013-03-18 23:02:00,32.0,31.0,29.89,SE,125,1.0,7.0,96,0.04,,,0.24,,2013-03-19 03:02:00,
2013-03-18 23:12:00,32.0,31.0,29.89,SE,125,1.0,7.0,96,0.04,,,0.24,,2013-03-19 03:12:00,
2013-03-18 23:22:00,32.0,31.0,29.88,North,0,0.0,6.0,96,0.03,,,0.25,,2013-03-19 03:22:00,
2013-03-18 23:33:00,32.0,31.0,29.88,North,0,0.0,9.0,96,0.03,,,0.25,,2013-03-19 03:33:00,
2013-03-18 23:43:00,32.0,31.0,29.88,North,0,0.0,9.0,96,0.03,,,0.25,,2013-03-19 03:43:00,
2013-03-18 23:54:00,33.0,32.0,29.87,SE,125,1.0,4.0,96,0.03,,,0.26,,2013-03-19 03:54:00,